createdAt,value
2023-05-03T00:00:28.488Z,40.58
2023-05-03T00:03:09.732Z,40.50
2023-05-03T00:05:43.277Z,40.65
2023-05-03T00:08:26.290Z,40.81
2023-05-03T00:11:02.339Z,40.59
2023-05-03T00:13:35.757Z,40.49
2023-05-03T00:16:06.898Z,40.72
2023-05-03T00:18:38.002Z,40.52
2023-05-03T00:21:10.650Z,40.63
2023-05-03T00:23:43.354Z,40.70
2023-05-03T00:26:17.184Z,40.69
2023-05-03T00:28:53.957Z,40.78
2023-05-03T00:31:27.282Z,40.72
2023-05-03T00:33:57.298Z,40.92
2023-05-03T00:36:31.090Z,40.56
2023-05-03T00:39:09.801Z,40.63
2023-05-03T00:41:46.941Z,40.71
2023-05-03T00:44:16.905Z,40.74
2023-05-03T00:46:45.548Z,40.99
2023-05-03T00:49:19.319Z,41.07
2023-05-03T00:51:53.292Z,41.04
2023-05-03T00:54:27.103Z,41.03
2023-05-03T00:57:06.970Z,40.88
2023-05-03T00:59:38.031Z,41.05
2023-05-03T01:02:15.919Z,40.88
2023-05-03T01:04:53.048Z,40.98
2023-05-03T01:07:53.630Z,40.95
2023-05-03T01:10:36.856Z,40.79
2023-05-03T01:13:28.485Z,40.95
2023-05-03T01:16:08.419Z,41.07
2023-05-03T01:18:44.148Z,40.86
2023-05-03T01:21:19.401Z,40.93
2023-05-03T01:24:14.001Z,40.88
2023-05-03T01:26:47.657Z,41.04
2023-05-03T01:29:24.239Z,41.20
2023-05-03T01:32:07.097Z,41.21
2023-05-03T01:34:45.265Z,41.17
2023-05-03T01:37:20.692Z,41.18
2023-05-03T01:40:08.213Z,41.17
2023-05-03T01:42:41.910Z,41.18
2023-05-03T01:45:13.109Z,41.38
2023-05-03T01:47:46.161Z,41.55
2023-05-03T01:50:23.858Z,41.39
2023-05-03T01:53:00.155Z,41.34
2023-05-03T01:55:34.090Z,41.41
2023-05-03T01:58:04.151Z,41.52
2023-05-03T02:00:32.419Z,41.48
2023-05-03T02:03:08.514Z,41.32
2023-05-03T02:05:41.429Z,41.24
2023-05-03T02:08:14.594Z,41.50
2023-05-03T02:10:47.758Z,41.45
2023-05-03T02:13:20.255Z,41.62
2023-05-03T02:15:53.649Z,41.54
2023-05-03T02:18:31.481Z,41.61
2023-05-03T02:21:08.053Z,41.70
2023-05-03T02:23:40.000Z,41.75
2023-05-03T02:26:10.187Z,41.51
2023-05-03T02:28:47.163Z,41.41
2023-05-03T02:31:20.262Z,41.59
2023-05-03T02:33:53.836Z,41.68
2023-05-03T02:36:27.131Z,41.58
2023-05-03T02:39:03.679Z,41.49
2023-05-03T02:41:45.535Z,41.65
2023-05-03T02:44:16.328Z,41.44
2023-05-03T02:47:00.300Z,41.36
2023-05-03T02:49:35.670Z,41.52
2023-05-03T02:52:16.213Z,41.66
2023-05-03T02:54:49.466Z,41.60
2023-05-03T02:57:27.126Z,41.58
2023-05-03T02:59:59.432Z,41.63
2023-05-03T03:02:35.369Z,41.66
2023-05-03T03:05:06.400Z,41.75
2023-05-03T03:07:37.107Z,41.82
2023-05-03T03:10:18.598Z,41.61
2023-05-03T03:12:57.894Z,41.76
2023-05-03T03:15:37.963Z,41.63
2023-05-03T03:18:09.370Z,41.80
2023-05-03T03:20:43.080Z,41.97
2023-05-03T03:23:21.635Z,41.99
2023-05-03T03:25:54.581Z,41.85
2023-05-03T03:28:32.249Z,41.87
2023-05-03T03:31:14.272Z,41.94
2023-05-03T03:33:49.474Z,42.15
2023-05-03T03:36:25.929Z,41.94
2023-05-03T03:38:58.047Z,41.92
2023-05-03T03:41:32.970Z,42.16
2023-05-03T03:44:04.432Z,41.86
2023-05-03T03:46:38.251Z,41.97
2023-05-03T03:49:14.246Z,41.93
2023-05-03T03:51:48.355Z,41.87
2023-05-03T03:54:23.003Z,41.93
2023-05-03T03:56:54.155Z,41.88
2023-05-03T03:59:30.350Z,41.87
2023-05-03T04:02:14.071Z,41.79
2023-05-03T04:04:48.218Z,41.93
2023-05-03T04:07:24.339Z,41.91
2023-05-03T04:10:02.867Z,41.87
2023-05-03T04:12:38.163Z,41.85
2023-05-03T04:15:17.374Z,41.86
2023-05-03T04:18:00.761Z,42.12
2023-05-03T04:20:37.060Z,41.99
2023-05-03T04:23:15.461Z,41.68
2023-05-03T04:25:48.925Z,41.63
2023-05-03T04:28:29.463Z,41.76
2023-05-03T04:31:02.649Z,42.05
2023-05-03T04:33:41.095Z,41.98
2023-05-03T04:36:19.153Z,42.00
2023-05-03T04:38:57.299Z,41.79
2023-05-03T04:41:27.830Z,41.79
2023-05-03T04:44:03.345Z,41.79
2023-05-03T04:46:42.515Z,41.70
2023-05-03T04:49:12.647Z,41.91
2023-05-03T04:51:46.620Z,41.93
2023-05-03T04:54:17.391Z,41.57
2023-05-03T04:56:48.813Z,41.85
2023-05-03T04:59:27.931Z,41.84
2023-05-03T05:01:58.389Z,41.71
2023-05-03T05:04:26.261Z,41.71
2023-05-03T05:06:59.565Z,41.82
2023-05-03T05:09:32.840Z,41.85
2023-05-03T05:12:04.198Z,41.75
2023-05-03T05:14:40.642Z,41.83
2023-05-03T05:17:15.578Z,41.46
2023-05-03T05:19:49.112Z,41.76
2023-05-03T05:22:22.794Z,41.72
2023-05-03T05:25:09.028Z,42.52
2023-05-03T05:27:45.476Z,41.95
2023-05-03T05:30:25.285Z,42.04
2023-05-03T05:32:58.532Z,42.25
2023-05-03T05:35:38.333Z,41.99
2023-05-03T05:38:09.491Z,42.37
2023-05-03T05:40:45.966Z,42.26
2023-05-03T05:43:28.002Z,42.54
2023-05-03T05:46:03.845Z,42.26
2023-05-03T05:48:37.219Z,42.44
2023-05-03T05:51:10.413Z,42.12
2023-05-03T05:53:48.828Z,42.11
2023-05-03T05:56:24.151Z,43.84
2023-05-03T05:59:07.030Z,42.50
2023-05-03T06:01:47.306Z,42.21
2023-05-03T06:04:32.705Z,42.34
2023-05-03T06:07:08.205Z,42.12
2023-05-03T06:09:46.927Z,42.11
2023-05-03T06:12:28.036Z,42.18
2023-05-03T06:15:02.863Z,42.12
2023-05-03T06:17:48.017Z,42.11
2023-05-03T06:20:21.995Z,41.89
2023-05-03T06:23:01.931Z,42.05
2023-05-03T06:25:56.893Z,42.23
2023-05-03T06:28:33.554Z,42.11
2023-05-03T06:31:09.221Z,41.80
2023-05-03T06:33:41.701Z,41.71
2023-05-03T06:36:17.304Z,41.34
2023-05-03T06:38:53.817Z,41.63
2023-05-03T06:41:32.768Z,42.00
2023-05-03T06:44:08.544Z,41.83
2023-05-03T06:46:36.785Z,42.11
2023-05-03T06:49:27.052Z,41.83
2023-05-03T06:52:05.172Z,41.93
2023-05-03T06:54:41.666Z,42.01
2023-05-03T06:57:11.908Z,42.24
2023-05-03T06:59:56.014Z,42.05
2023-05-03T07:02:27.645Z,41.83
2023-05-03T07:05:03.781Z,41.45
2023-05-03T07:07:37.671Z,41.12
2023-05-03T07:10:12.294Z,40.31
2023-05-03T07:12:47.615Z,39.89
2023-05-03T07:15:20.988Z,39.49
2023-05-03T07:17:54.664Z,39.81
2023-05-03T07:20:31.470Z,39.39
2023-05-03T07:23:00.559Z,40.16
2023-05-03T07:25:33.288Z,39.84
2023-05-03T07:28:01.612Z,39.74
2023-05-03T07:30:32.692Z,39.30
2023-05-03T07:33:01.558Z,38.60
2023-05-03T07:35:35.714Z,38.46
2023-05-03T07:38:12.069Z,38.44
2023-05-03T07:40:45.810Z,38.97
2023-05-03T07:43:24.668Z,38.98
2023-05-03T07:45:55.600Z,38.75
2023-05-03T07:48:32.804Z,38.30
2023-05-03T07:51:12.102Z,38.75
2023-05-03T07:53:45.521Z,39.47
2023-05-03T07:56:24.582Z,39.34
2023-05-03T07:59:09.384Z,39.38
2023-05-03T08:01:45.974Z,38.73
2023-05-03T08:04:27.458Z,38.17
2023-05-03T08:07:07.722Z,38.12
2023-05-03T08:09:46.162Z,38.09
2023-05-03T08:12:17.145Z,37.04
2023-05-03T08:14:56.230Z,36.43
2023-05-03T08:17:40.105Z,36.71
2023-05-03T08:20:15.853Z,37.00
2023-05-03T08:22:59.453Z,36.62
2023-05-03T08:25:40.053Z,36.71
2023-05-03T08:28:15.527Z,36.81
2023-05-03T08:30:57.288Z,36.22
2023-05-03T08:33:39.977Z,36.62
2023-05-03T08:36:16.891Z,36.23
2023-05-03T08:38:58.085Z,35.92
2023-05-03T08:41:30.665Z,37.29
2023-05-03T08:44:07.004Z,37.97
2023-05-03T08:46:45.785Z,37.56
2023-05-03T08:49:17.758Z,38.10
2023-05-03T08:51:52.457Z,38.50
2023-05-03T08:54:22.136Z,39.34
2023-05-03T08:56:54.190Z,39.47
2023-05-03T08:59:29.708Z,39.67
2023-05-03T09:02:00.645Z,39.73
2023-05-03T09:04:37.716Z,39.98
2023-05-03T09:07:11.881Z,40.44
2023-05-03T09:09:47.473Z,40.61
2023-05-03T09:12:41.258Z,40.58
2023-05-03T09:15:23.727Z,40.64
2023-05-03T09:18:20.732Z,40.60
2023-05-03T09:21:02.706Z,40.21
2023-05-03T09:23:33.982Z,40.57
2023-05-03T09:26:07.211Z,40.69
2023-05-03T09:28:46.199Z,40.55
2023-05-03T09:31:16.923Z,40.82
2023-05-03T09:33:50.010Z,40.57
2023-05-03T09:36:23.802Z,40.83
2023-05-03T09:38:56.146Z,40.92
2023-05-03T09:41:34.337Z,40.48
2023-05-03T09:44:05.051Z,40.62
2023-05-03T09:46:38.195Z,40.62
2023-05-03T09:49:08.489Z,40.53
2023-05-03T09:51:38.868Z,40.99
2023-05-03T09:54:12.859Z,40.30
2023-05-03T09:56:44.885Z,40.28
2023-05-03T09:59:17.056Z,40.72
2023-05-03T10:01:48.895Z,40.86
2023-05-03T10:04:21.832Z,40.73
2023-05-03T10:06:53.992Z,40.55
2023-05-03T10:09:35.837Z,40.10
2023-05-03T10:12:12.784Z,40.67
2023-05-03T10:14:42.927Z,40.57
2023-05-03T10:17:17.923Z,40.42
2023-05-03T10:20:10.237Z,40.73
2023-05-03T10:23:06.085Z,40.67
2023-05-03T10:25:39.386Z,40.86
2023-05-03T10:28:09.666Z,40.16
2023-05-03T10:30:44.773Z,39.78
2023-05-03T10:33:18.392Z,40.31
2023-05-03T10:36:01.741Z,39.54
2023-05-03T10:38:35.615Z,39.89
2023-05-03T10:41:06.905Z,40.16
2023-05-03T10:43:40.939Z,40.03
2023-05-03T10:46:36.465Z,39.98
2023-05-03T10:49:20.923Z,39.75
2023-05-03T10:51:51.851Z,39.94
2023-05-03T10:54:21.943Z,39.74
2023-05-03T10:56:59.272Z,39.44
2023-05-03T10:59:58.882Z,39.39
2023-05-03T11:02:34.144Z,39.64
2023-05-03T11:05:09.412Z,39.61
2023-05-03T11:07:41.902Z,39.52
2023-05-03T11:10:23.391Z,39.18
2023-05-03T11:12:56.242Z,39.68
2023-05-03T11:15:29.484Z,39.43
2023-05-03T11:18:00.831Z,39.36
2023-05-03T11:20:34.804Z,38.66
2023-05-03T11:23:07.592Z,38.89
2023-05-03T11:25:40.794Z,38.57
2023-05-03T11:28:13.174Z,38.25
2023-05-03T11:30:50.658Z,38.38
2023-05-03T11:33:21.313Z,38.34
2023-05-03T11:35:57.929Z,38.31
2023-05-03T11:38:28.663Z,38.26
2023-05-03T11:41:01.310Z,38.75
2023-05-03T11:43:30.600Z,38.51
2023-05-03T11:46:02.026Z,38.97
2023-05-03T11:48:36.297Z,38.51
2023-05-03T11:51:10.969Z,38.63
2023-05-03T11:53:50.829Z,38.79
2023-05-03T11:56:22.802Z,38.46
2023-05-03T11:59:00.848Z,37.35
2023-05-03T12:01:33.991Z,38.56
2023-05-03T12:04:05.635Z,38.68
2023-05-03T12:06:37.943Z,38.13
2023-05-03T12:09:16.062Z,37.11
2023-05-03T12:11:52.464Z,35.53
2023-05-03T12:14:26.227Z,35.60
2023-05-03T12:17:00.473Z,35.45
2023-05-03T12:19:38.408Z,36.23
2023-05-03T12:22:25.632Z,35.02
2023-05-03T12:25:03.949Z,35.24
2023-05-03T12:27:38.489Z,34.35
2023-05-03T12:30:12.338Z,34.47
2023-05-03T12:32:44.370Z,33.80
2023-05-03T12:35:28.016Z,32.70
2023-05-03T12:37:56.613Z,33.57
2023-05-03T12:40:34.623Z,33.38
2023-05-03T12:43:03.977Z,33.54
2023-05-03T12:45:35.216Z,33.30
2023-05-03T12:48:09.418Z,33.39
2023-05-03T12:50:39.457Z,33.71
2023-05-03T12:53:19.804Z,33.95
2023-05-03T12:55:52.226Z,33.30
2023-05-03T12:58:52.807Z,32.68
2023-05-03T13:04:23.542Z,33.09
2023-05-03T13:06:57.569Z,33.45
2023-05-03T13:10:12.394Z,33.26
2023-05-03T13:12:24.354Z,33.49
2023-05-03T13:14:54.903Z,33.28
2023-05-03T13:17:28.207Z,33.23
2023-05-03T13:20:07.362Z,33.63
2023-05-03T13:22:39.350Z,33.70
2023-05-03T13:25:13.367Z,32.90
2023-05-03T13:27:44.320Z,33.42
2023-05-03T13:30:15.445Z,33.63
2023-05-03T13:32:50.299Z,34.33
2023-05-03T13:35:26.206Z,35.27
2023-05-03T13:37:57.264Z,34.57
2023-05-03T13:40:25.111Z,35.47
2023-05-03T13:42:52.956Z,35.06
2023-05-03T13:45:23.402Z,35.15
2023-05-03T13:48:09.160Z,36.14
2023-05-03T13:50:47.093Z,35.81
2023-05-03T13:53:20.560Z,35.85
2023-05-03T13:55:48.218Z,35.52
2023-05-03T13:58:27.365Z,35.70
2023-05-03T14:00:56.448Z,35.14
2023-05-03T14:03:27.516Z,35.28
2023-05-03T14:05:56.160Z,35.05
2023-05-03T14:08:26.853Z,34.44
2023-05-03T14:11:00.061Z,34.60
2023-05-03T14:13:40.466Z,34.53
2023-05-03T14:16:35.879Z,34.32
2023-05-03T14:19:10.229Z,34.63
2023-05-03T14:21:41.682Z,33.63
2023-05-03T14:24:14.395Z,33.19
2023-05-03T14:26:46.296Z,33.11
2023-05-03T14:29:17.405Z,32.93
2023-05-03T14:31:47.530Z,33.27
2023-05-03T14:34:15.838Z,32.93
2023-05-03T14:36:51.042Z,33.65
2023-05-03T14:39:20.845Z,33.25
2023-05-03T14:41:51.164Z,32.84
2023-05-03T14:44:19.106Z,33.07
2023-05-03T14:46:47.239Z,32.59
2023-05-03T14:49:24.826Z,33.00
2023-05-03T14:51:58.340Z,32.61
2023-05-03T14:54:28.803Z,32.82
2023-05-03T14:56:56.757Z,33.31
2023-05-03T14:59:27.214Z,33.13
2023-05-03T15:02:04.418Z,32.92
2023-05-03T15:04:32.281Z,33.82
2023-05-03T15:07:05.326Z,33.73
2023-05-03T15:09:34.045Z,34.41
2023-05-03T15:12:05.015Z,34.69
2023-05-03T15:14:33.173Z,34.10
2023-05-03T15:17:03.242Z,34.15
2023-05-03T15:19:34.104Z,34.39
2023-05-03T15:22:04.851Z,34.66
2023-05-03T15:24:35.404Z,34.88
2023-05-03T15:27:09.173Z,35.90
2023-05-03T15:29:40.694Z,36.01
2023-05-03T15:32:11.373Z,36.44
2023-05-03T15:34:47.091Z,35.97
2023-05-03T15:37:15.416Z,36.37
2023-05-03T15:39:45.616Z,37.19
2023-05-03T15:42:17.749Z,37.44
2023-05-03T15:44:49.836Z,37.66
2023-05-03T15:47:19.838Z,37.99
2023-05-03T15:49:54.191Z,38.06
2023-05-03T15:52:26.427Z,38.31
2023-05-03T15:54:59.518Z,37.96
2023-05-03T15:57:27.282Z,38.25
2023-05-03T15:59:57.656Z,39.06
2023-05-03T16:02:36.255Z,39.22
2023-05-03T16:05:07.421Z,39.79
2023-05-03T16:07:37.252Z,39.79
2023-05-03T16:10:10.225Z,39.75
2023-05-03T16:12:40.962Z,40.11
2023-05-03T16:15:17.290Z,40.10
2023-05-03T16:17:48.392Z,40.26
2023-05-03T16:20:21.593Z,40.62
2023-05-03T16:22:53.123Z,39.81
2023-05-03T16:25:23.905Z,40.03
2023-05-03T16:27:54.795Z,39.87
2023-05-03T16:30:28.383Z,39.68
2023-05-03T16:32:59.387Z,39.45
2023-05-03T16:35:28.039Z,39.76
2023-05-03T16:37:58.053Z,39.36
2023-05-03T16:40:28.596Z,39.64
2023-05-03T16:43:01.764Z,39.35
2023-05-03T16:45:34.975Z,39.30
2023-05-03T16:48:08.325Z,39.09
2023-05-03T16:50:42.988Z,39.69
2023-05-03T16:53:13.792Z,39.14
2023-05-03T16:55:46.542Z,38.48
2023-05-03T16:58:16.953Z,38.77
2023-05-03T17:00:46.015Z,38.78
2023-05-03T17:03:17.362Z,38.86
2023-05-03T17:05:50.307Z,38.61
2023-05-03T17:08:21.315Z,38.92
2023-05-03T17:10:54.516Z,38.58
2023-05-03T17:13:23.015Z,38.75
2023-05-03T17:15:53.137Z,38.94
2023-05-03T17:18:29.188Z,39.08
2023-05-03T17:21:01.414Z,38.91
2023-05-03T17:23:38.404Z,38.93
2023-05-03T17:26:16.495Z,38.94
2023-05-03T17:28:49.825Z,38.94
2023-05-03T17:31:20.482Z,38.76
2023-05-03T17:33:52.057Z,39.06
2023-05-03T17:36:27.180Z,38.76
2023-05-03T17:39:03.235Z,39.12
2023-05-03T17:41:40.590Z,39.19
2023-05-03T17:44:14.349Z,38.84
2023-05-03T17:46:46.606Z,38.87
2023-05-03T17:49:19.314Z,39.11
2023-05-03T17:51:50.378Z,39.33
2023-05-03T17:54:23.793Z,38.98
2023-05-03T17:56:51.897Z,38.79
2023-05-03T17:59:28.054Z,38.82
2023-05-03T18:01:55.877Z,38.94
2023-05-03T18:04:29.583Z,38.79
2023-05-03T18:06:57.493Z,38.98
2023-05-03T18:09:27.930Z,39.04
2023-05-03T18:12:02.146Z,38.81
2023-05-03T18:14:37.341Z,39.13
2023-05-03T18:17:07.494Z,39.01
2023-05-03T18:19:39.861Z,38.95
2023-05-03T18:22:08.176Z,39.07
2023-05-03T18:24:39.501Z,38.86
2023-05-03T18:27:12.879Z,38.84
2023-05-03T18:29:48.912Z,39.00
2023-05-03T18:32:19.431Z,38.89
2023-05-03T18:34:49.758Z,38.84
2023-05-03T18:37:23.999Z,38.95
2023-05-03T18:39:54.938Z,38.90
2023-05-03T18:42:27.833Z,38.75
2023-05-03T18:44:57.837Z,38.99
2023-05-03T18:47:27.983Z,38.97
2023-05-03T18:49:55.699Z,39.10
2023-05-03T18:52:29.038Z,38.78
2023-05-03T18:55:04.805Z,38.94
2023-05-03T18:57:40.501Z,39.10
2023-05-03T19:00:14.037Z,39.38
2023-05-03T19:02:49.969Z,39.27
2023-05-03T19:05:24.172Z,39.00
2023-05-03T19:07:56.746Z,38.97
2023-05-03T19:10:26.448Z,39.24
2023-05-03T19:12:59.116Z,39.22
2023-05-03T19:15:30.159Z,38.95
2023-05-03T19:18:03.346Z,39.22
2023-05-03T19:20:35.844Z,39.31
2023-05-03T19:23:08.511Z,39.15
2023-05-03T19:25:42.337Z,39.20
2023-05-03T19:28:12.418Z,39.42
2023-05-03T19:30:45.725Z,39.52
2023-05-03T19:33:18.891Z,39.58
2023-05-03T19:35:51.444Z,39.06
2023-05-03T19:38:21.628Z,39.13
2023-05-03T19:41:00.976Z,39.27
2023-05-03T19:43:34.658Z,39.21
2023-05-03T19:46:10.622Z,39.23
2023-05-03T19:48:43.652Z,39.17
2023-05-03T19:51:15.275Z,39.21
2023-05-03T19:53:49.113Z,39.20
2023-05-03T19:56:22.002Z,39.51
2023-05-03T19:58:56.812Z,39.25
2023-05-03T20:01:26.635Z,39.38
2023-05-03T20:03:55.172Z,39.35
2023-05-03T20:06:28.452Z,39.51
2023-05-03T20:09:04.409Z,39.41
2023-05-03T20:11:36.974Z,39.38
2023-05-03T20:14:06.884Z,39.44
2023-05-03T20:16:40.431Z,39.34
2023-05-03T20:19:08.259Z,39.59
2023-05-03T20:21:38.649Z,39.64
2023-05-03T20:24:11.432Z,39.77
2023-05-03T20:26:42.316Z,39.82
2023-05-03T20:29:15.102Z,39.70
2023-05-03T20:31:48.224Z,39.81
2023-05-03T20:34:19.190Z,39.72
2023-05-03T20:36:53.619Z,39.79
2023-05-03T20:39:24.467Z,39.53
2023-05-03T20:42:02.428Z,39.81
2023-05-03T20:44:37.945Z,39.75
2023-05-03T20:47:05.837Z,39.52
2023-05-03T20:49:33.877Z,39.80
2023-05-03T20:52:01.383Z,40.06
2023-05-03T20:54:31.037Z,39.74
2023-05-03T20:57:01.445Z,39.92
2023-05-03T20:59:34.910Z,39.83
2023-05-03T21:02:07.858Z,40.09
2023-05-03T21:04:41.483Z,39.87
2023-05-03T21:07:11.817Z,40.23
2023-05-03T21:09:45.566Z,39.99
2023-05-03T21:12:21.896Z,40.10
2023-05-03T21:14:49.419Z,40.16
2023-05-03T21:17:21.554Z,39.76
2023-05-03T21:19:51.922Z,39.92
2023-05-03T21:22:27.182Z,39.99
2023-05-03T21:24:57.659Z,40.13
2023-05-03T21:27:29.919Z,39.76
2023-05-03T21:30:03.242Z,39.96
2023-05-03T21:32:30.901Z,39.97
2023-05-03T21:35:05.861Z,39.88
2023-05-03T21:37:34.488Z,39.87
2023-05-03T21:40:11.308Z,40.06
2023-05-03T21:42:41.935Z,40.00
2023-05-03T21:45:16.830Z,39.99
2023-05-03T21:47:49.663Z,40.25
2023-05-03T21:50:24.909Z,40.19
2023-05-03T21:52:55.442Z,40.38
2023-05-03T21:55:25.203Z,40.26
2023-05-03T21:57:59.068Z,39.92
2023-05-03T22:00:36.204Z,40.30
2023-05-03T22:03:05.312Z,40.30
2023-05-03T22:05:40.929Z,40.20
2023-05-03T22:08:14.316Z,40.05
2023-05-03T22:10:46.311Z,40.30
2023-05-03T22:13:18.087Z,40.36
2023-05-03T22:15:49.321Z,40.44
2023-05-03T22:18:19.381Z,40.40
2023-05-03T22:20:51.774Z,40.30
2023-05-03T22:23:19.426Z,40.61
2023-05-03T22:25:52.356Z,40.48
2023-05-03T22:28:26.914Z,40.57
2023-05-03T22:31:00.458Z,40.30
2023-05-03T22:33:30.274Z,40.55
2023-05-03T22:36:00.944Z,40.41
2023-05-03T22:38:30.701Z,40.18
2023-05-03T22:41:03.801Z,40.43
2023-05-03T22:43:32.015Z,40.40
2023-05-03T22:46:02.871Z,40.35
2023-05-03T22:48:34.927Z,40.58
2023-05-03T22:51:04.962Z,40.59
2023-05-03T22:53:34.950Z,40.72
2023-05-03T22:56:08.765Z,40.61
2023-05-03T22:58:39.102Z,40.41
2023-05-03T23:01:13.129Z,40.30
2023-05-03T23:03:43.586Z,40.41
2023-05-03T23:06:15.091Z,40.64
2023-05-03T23:08:44.201Z,40.72
2023-05-03T23:11:16.602Z,40.53
2023-05-03T23:13:51.860Z,40.38
2023-05-03T23:16:24.593Z,40.40
2023-05-03T23:18:55.808Z,40.45
2023-05-03T23:21:26.598Z,40.44
2023-05-03T23:23:57.691Z,40.48
2023-05-03T23:26:28.307Z,40.69
2023-05-03T23:28:56.274Z,40.87
2023-05-03T23:31:31.637Z,40.29
2023-05-03T23:34:00.777Z,40.49
2023-05-03T23:36:31.374Z,40.45
2023-05-03T23:39:01.772Z,40.33
2023-05-03T23:41:34.126Z,40.37
2023-05-03T23:44:01.594Z,40.53
2023-05-03T23:46:33.774Z,40.29
2023-05-03T23:49:04.704Z,40.55
2023-05-03T23:51:37.237Z,40.28
2023-05-03T23:54:08.035Z,40.55
2023-05-03T23:56:41.815Z,40.37
2023-05-03T23:59:11.632Z,40.38
